Detall de PIREP

Printer-friendly versionPDF version

[2014/04/27 07:45:00]
Flight IATA:CT3310
Pilot Number:012
Company ICAO:CAT
Aircraft Type:B763/F
PAX:229
Departing Airport: LEZG
Destination Airport: LLBG
Alternate Airport:OJAI
Online: VATSIM
Route:PONEN/M080F380 UN870 BCN UN725 ORKUM/N0465F390 UM603 POKAV UL12 RONAB UM601 RDS UL609 ALKIS UL609 SOLIN
Flight Level:F380
No Slew and time accel
No pause
Crash detect
Detect pilot in Cockpit between each 30 and 45 minutes
07:45 Zero fuel Weight: 248750 Lbs, Fuel Weight: 58906 Lbs
07:45 VATSIM:LEZG 270730Z 30011KT 9999 FEW050 11/05 Q1018
07:45 VATSIM:LLBG 270720Z 01005KT CAVOK 22/12 Q1012 NOSIG
07:45 Parking Brakes off
07:49 Take-off
07:49 Take off Weight: 306482 Lbs
07:49 Wind: 300º @ 011 Knots Heading: 299º
07:49 POS N41º 39´ 43´´ W001º 01´ 25´´
07:49 Gear Up: 175 Knots
07:49 Flaps:2 at 175 Knots
07:50 Flaps:1 at 209 Knots
07:50 Flaps:0 at 206 Knots
08:04 Wind:310º@104 Knots Heading: 091º Ground Speed: 541 Knots Altitude 36151 ft
08:05 TOC
08:05 Fuel Weight: 51110 Lb
08:19 Wind:300º@073 Knots Heading: 097º Ground Speed: 529 Knots Altitude 38011 ft
08:34 Wind:283º@056 Knots Heading: 097º Ground Speed: 517 Knots Altitude 37867 ft
08:48 TOD
08:48 Fuel Weight: 44233 Lb
08:49 Wind:267º@054 Knots Heading: 068º Ground Speed: 532 Knots Altitude 35741 ft
08:50 TOC
08:50 Fuel Weight: 43973 Lb
09:04 Wind:283º@047 Knots Heading: 120º Ground Speed: 506 Knots Altitude 38861 ft
09:19 Wind:302º@041 Knots Heading: 093º Ground Speed: 497 Knots Altitude 38897 ft
09:34 Wind:323º@038 Knots Heading: 096º Ground Speed: 491 Knots Altitude 38891 ft
09:49 Wind:319º@024 Knots Heading: 106º Ground Speed: 483 Knots Altitude 38861 ft
10:04 Wind:296º@017 Knots Heading: 115º Ground Speed: 480 Knots Altitude 38864 ft
10:19 Wind:218º@030 Knots Heading: 118º Ground Speed: 472 Knots Altitude 38861 ft
10:34 Wind:228º@057 Knots Heading: 121º Ground Speed: 486 Knots Altitude 38868 ft
10:49 Wind:231º@072 Knots Heading: 124º Ground Speed: 494 Knots Altitude 38884 ft
11:04 Wind:229º@054 Knots Heading: 123º Ground Speed: 489 Knots Altitude 38956 ft
11:19 Wind:234º@044 Knots Heading: 124º Ground Speed: 489 Knots Altitude 38943 ft
11:21 TOD
11:21 Fuel Weight: 20203 Lb
11:34 Wind:251º@009 Knots Heading: 125º Ground Speed: 286 Knots Altitude 7493 ft
11:39 Flaps:1 at 191 Knots
11:40 Flaps:2 at 182 Knots
11:40 Gear Down: 164 Knots
11:40 Flaps:3 at 173 Knots
11:41 Flaps:4 at 159 Knots
11:42 Flaps:5 at 150 Knots
11:42 Flaps:6 at 137 Knots
11:44 TouchDown:Rate -260 ft/min Speed: 122 Knots
11:44 VATSIM:LLBG 271120Z 31013KT CAVOK 24/14 Q1011 NOSIG
11:44 Land
11:44 Wind:305º@013 Knots
11:44 Heading: 256º
11:44 Flight Duration: 03:55
11:44 Landing Weight: 266666 Lbs
11:44 POS N32º 00´ 55´´ E034º 52´ 39´´
11:52 Parking brakes on
11:52 Block to Block Duration: 04:07
11:52 Final Fuel: 16627 Lbls
11:52 Spent Fuel: 42279 Lbls
11:52 Flight Length: 1875 NM
11:52 TOD Land Length: 123 NM

Exportar CSV

Powered by Drupal - Modified by Danger4k